createdAt,value
2024-03-30T00:00:57.926Z,66.66
2024-03-30T00:01:57.914Z,66.66
2024-03-30T00:02:57.918Z,66.55
2024-03-30T00:03:57.937Z,66.55
2024-03-30T00:04:57.943Z,66.35
2024-03-30T00:05:57.981Z,66.35
2024-03-30T00:06:58.114Z,66.55
2024-03-30T00:07:58.044Z,66.35
2024-03-30T00:08:57.994Z,66.45
2024-03-30T00:09:58.056Z,66.45
2024-03-30T00:10:58.076Z,66.55
2024-03-30T00:11:58.076Z,66.55
2024-03-30T00:12:58.082Z,66.45
2024-03-30T00:13:58.081Z,66.55
2024-03-30T00:14:58.104Z,66.45
2024-03-30T00:15:58.143Z,66.45
2024-03-30T00:16:58.122Z,66.55
2024-03-30T00:17:58.134Z,66.55
2024-03-30T00:18:58.158Z,66.55
2024-03-30T00:19:58.229Z,66.55
2024-03-30T00:20:58.220Z,66.55
2024-03-30T00:21:58.196Z,66.55
2024-03-30T00:22:58.209Z,66.66
2024-03-30T00:23:58.230Z,66.66
2024-03-30T00:24:58.340Z,66.45
2024-03-30T00:25:58.271Z,66.14
2024-03-30T00:26:58.302Z,66.25
2024-03-30T00:27:58.292Z,66.38
2024-03-30T00:28:58.294Z,66.38
2024-03-30T00:29:58.353Z,66.48
2024-03-30T00:30:58.325Z,66.48
2024-03-30T00:31:58.344Z,66.28
2024-03-30T00:32:58.357Z,66.38
2024-03-30T00:33:58.368Z,66.48
2024-03-30T00:34:58.430Z,66.38
2024-03-30T00:35:58.418Z,66.38
2024-03-30T00:36:58.414Z,66.38
2024-03-30T00:37:58.438Z,66.28
2024-03-30T00:38:58.479Z,66.28
2024-03-30T00:39:58.494Z,66.28
2024-03-30T00:40:58.510Z,66.07
2024-03-30T00:41:58.500Z,66.17
2024-03-30T00:43:05.380Z,66.28
2024-03-30T00:43:58.520Z,66.38
2024-03-30T00:44:58.569Z,66.38
2024-03-30T00:45:58.550Z,66.38
2024-03-30T00:46:58.565Z,66.38
2024-03-30T00:47:58.625Z,66.38
2024-03-30T00:48:58.600Z,66.28
2024-03-30T00:49:58.631Z,66.28
2024-03-30T00:50:58.631Z,66.28
2024-03-30T00:51:58.636Z,66.28
2024-03-30T00:52:58.650Z,66.28
2024-03-30T00:53:58.809Z,66.17
2024-03-30T00:54:58.709Z,66.17
2024-03-30T00:55:58.689Z,66.17
2024-03-30T00:56:58.709Z,66.17
2024-03-30T00:57:58.733Z,66.07
2024-03-30T00:58:58.779Z,66.17
2024-03-30T00:59:58.754Z,66.17
2024-03-30T01:00:58.762Z,66.07
2024-03-30T01:01:58.758Z,66.17
2024-03-30T01:02:58.813Z,66.28
2024-03-30T01:03:58.829Z,66.38
2024-03-30T01:04:58.817Z,66.38
2024-03-30T01:05:58.831Z,66.38
2024-03-30T01:06:58.850Z,66.38
2024-03-30T01:07:58.862Z,66.28
2024-03-30T01:08:58.938Z,66.28
2024-03-30T01:09:58.895Z,66.28
2024-03-30T01:10:58.911Z,66.17
2024-03-30T01:11:58.927Z,66.28
2024-03-30T01:12:58.954Z,66.28
2024-03-30T01:13:58.994Z,66.28
2024-03-30T01:14:58.979Z,66.38
2024-03-30T01:15:59.002Z,66.17
2024-03-30T01:16:59.003Z,65.97
2024-03-30T01:17:59.036Z,66.17
2024-03-30T01:18:59.065Z,66.38
2024-03-30T01:19:59.047Z,66.17
2024-03-30T01:21:01.800Z,66.28
2024-03-30T01:21:59.080Z,66.17
2024-03-30T01:22:59.091Z,66.07
2024-03-30T01:23:59.129Z,66.17
2024-03-30T01:24:59.118Z,66.17
2024-03-30T01:25:59.127Z,66.17
2024-03-30T01:26:59.157Z,66.17
2024-03-30T01:27:59.193Z,66.17
2024-03-30T01:28:59.216Z,66.17
2024-03-30T01:29:59.225Z,66.17
2024-03-30T01:30:59.232Z,66.17
2024-03-30T01:31:59.234Z,66.17
2024-03-30T01:32:59.284Z,66.07
2024-03-30T01:33:59.244Z,65.87
2024-03-30T01:34:59.262Z,65.97
2024-03-30T01:35:59.293Z,65.87
2024-03-30T01:36:59.311Z,65.87
2024-03-30T01:37:59.366Z,65.97
2024-03-30T01:38:59.320Z,65.87
2024-03-30T01:39:59.339Z,65.77
2024-03-30T01:40:59.375Z,65.77
2024-03-30T01:41:59.376Z,65.77
2024-03-30T01:42:59.401Z,65.77
2024-03-30T01:43:59.384Z,65.77
2024-03-30T01:44:59.411Z,65.66
2024-03-30T01:45:59.410Z,65.56
2024-03-30T01:46:59.466Z,65.66
2024-03-30T01:47:59.469Z,65.56
2024-03-30T01:48:59.492Z,65.36
2024-03-30T01:49:59.453Z,65.25
2024-03-30T01:50:59.474Z,65.05
2024-03-30T01:51:59.521Z,65.15
2024-03-30T01:52:59.532Z,65.36
2024-03-30T01:53:59.513Z,65.25
2024-03-30T01:54:59.525Z,65.36
2024-03-30T01:55:59.529Z,65.46
2024-03-30T01:56:59.563Z,65.36
2024-03-30T01:57:59.610Z,65.36
2024-03-30T01:58:59.583Z,65.46
2024-03-30T01:59:59.595Z,65.46
2024-03-30T02:00:59.627Z,65.46
2024-03-30T02:01:59.633Z,65.49
2024-03-30T02:02:59.689Z,65.59
2024-03-30T02:03:59.666Z,65.80
2024-03-30T02:04:59.694Z,65.69
2024-03-30T02:05:59.698Z,65.59
2024-03-30T02:06:59.770Z,65.59
2024-03-30T02:07:59.754Z,65.69
2024-03-30T02:08:59.744Z,65.59
2024-03-30T02:09:59.767Z,65.49
2024-03-30T02:10:59.770Z,65.80
2024-03-30T02:11:59.805Z,65.90
2024-03-30T02:12:59.788Z,65.80
2024-03-30T02:13:59.804Z,65.80
2024-03-30T02:14:59.816Z,66.00
2024-03-30T02:15:59.827Z,65.80
2024-03-30T02:16:59.874Z,65.90
2024-03-30T02:17:59.868Z,65.90
2024-03-30T02:18:59.876Z,65.90
2024-03-30T02:19:59.929Z,65.90
2024-03-30T02:20:59.929Z,65.90
2024-03-30T02:21:59.959Z,65.90
2024-03-30T02:22:59.959Z,65.80
2024-03-30T02:23:59.958Z,65.69
2024-03-30T02:24:59.967Z,65.59
2024-03-30T02:25:59.963Z,65.49
2024-03-30T02:27:00.057Z,65.49
2024-03-30T02:27:59.987Z,65.49
2024-03-30T02:29:00.000Z,65.39
2024-03-30T02:30:00.065Z,65.49
2024-03-30T02:31:00.039Z,65.59
2024-03-30T02:32:00.089Z,65.49
2024-03-30T02:33:00.126Z,65.49
2024-03-30T02:34:00.100Z,65.59
2024-03-30T02:35:00.146Z,65.59
2024-03-30T02:36:00.124Z,65.69
2024-03-30T02:37:00.175Z,65.49
2024-03-30T02:38:00.158Z,65.18
2024-03-30T02:39:00.188Z,65.08
2024-03-30T02:40:00.204Z,65.18
2024-03-30T02:41:00.241Z,65.49
2024-03-30T02:42:00.221Z,65.39
2024-03-30T02:43:00.216Z,65.28
2024-03-30T02:44:00.216Z,65.18
2024-03-30T02:45:00.257Z,65.18
2024-03-30T02:46:00.304Z,65.18
2024-03-30T02:47:00.276Z,64.87
2024-03-30T02:48:00.287Z,64.87
2024-03-30T02:49:00.301Z,64.98
2024-03-30T02:50:00.317Z,65.08
2024-03-30T02:51:00.375Z,65.28
2024-03-30T02:52:00.331Z,65.18
2024-03-30T02:53:00.350Z,65.31
2024-03-30T02:54:00.364Z,65.52
2024-03-30T02:55:00.392Z,65.83
2024-03-30T02:56:00.427Z,65.72
2024-03-30T02:57:00.420Z,65.72
2024-03-30T02:58:00.420Z,65.31
2024-03-30T02:59:00.446Z,65.34
2024-03-30T03:00:00.497Z,65.45
2024-03-30T03:01:00.507Z,65.86
2024-03-30T03:02:00.497Z,66.06
2024-03-30T03:03:00.606Z,65.96
2024-03-30T03:04:00.505Z,65.42
2024-03-30T03:05:00.581Z,65.42
2024-03-30T03:06:00.561Z,65.11
2024-03-30T03:07:00.562Z,65.62
2024-03-30T03:08:00.598Z,65.62
2024-03-30T03:09:00.611Z,65.72
2024-03-30T03:10:00.678Z,65.42
2024-03-30T03:11:00.648Z,65.52
2024-03-30T03:12:00.656Z,65.42
2024-03-30T03:13:00.638Z,65.31
2024-03-30T03:14:00.641Z,65.31
2024-03-30T03:15:00.702Z,65.21
2024-03-30T03:16:00.689Z,65.21
2024-03-30T03:17:00.702Z,64.90
2024-03-30T03:18:00.692Z,64.90
2024-03-30T03:19:00.717Z,64.80
2024-03-30T03:20:01.145Z,65.01
2024-03-30T03:21:00.776Z,64.80
2024-03-30T03:22:00.765Z,64.70
2024-03-30T03:23:00.844Z,64.60
2024-03-30T03:24:00.800Z,64.50
2024-03-30T03:25:00.834Z,64.80
2024-03-30T03:26:00.811Z,64.80
2024-03-30T03:27:00.825Z,64.80
2024-03-30T03:28:00.837Z,64.50
2024-03-30T03:29:00.886Z,64.60
2024-03-30T03:30:00.924Z,64.70
2024-03-30T03:31:00.887Z,64.90
2024-03-30T03:32:00.899Z,64.90
2024-03-30T03:33:00.932Z,64.80
2024-03-30T03:34:00.962Z,65.01
2024-03-30T03:35:01.003Z,64.90
2024-03-30T03:36:00.983Z,65.11
2024-03-30T03:37:00.981Z,65.11
2024-03-30T03:38:00.985Z,65.21
2024-03-30T03:39:01.038Z,65.31
2024-03-30T03:40:01.040Z,65.11
2024-03-30T03:41:01.030Z,65.21
2024-03-30T03:42:01.030Z,65.31
2024-03-30T03:43:01.053Z,65.31
2024-03-30T03:44:01.092Z,65.21
2024-03-30T03:45:01.066Z,65.11
2024-03-30T03:46:01.079Z,65.21
2024-03-30T03:47:01.119Z,65.01
2024-03-30T03:48:01.104Z,65.01
2024-03-30T03:49:01.170Z,64.90
2024-03-30T03:50:01.156Z,64.80
2024-03-30T03:51:01.168Z,64.90
2024-03-30T03:52:01.215Z,65.11
2024-03-30T03:53:01.172Z,65.11
2024-03-30T03:54:01.263Z,65.21
2024-03-30T03:55:01.226Z,65.21
2024-03-30T03:56:01.230Z,65.31
2024-03-30T03:57:01.232Z,65.21
2024-03-30T03:58:01.241Z,65.21
2024-03-30T03:59:01.287Z,65.31
2024-03-30T04:00:01.279Z,65.31
2024-03-30T04:01:01.320Z,65.31
2024-03-30T04:02:01.308Z,65.31
2024-03-30T04:03:01.385Z,65.31
2024-03-30T04:04:01.374Z,65.31
2024-03-30T04:05:01.353Z,64.60
2024-03-30T04:06:01.393Z,64.39
2024-03-30T04:07:01.399Z,64.36
2024-03-30T04:08:01.434Z,64.47
2024-03-30T04:09:01.461Z,64.77
2024-03-30T04:10:01.461Z,64.87
2024-03-30T04:11:01.470Z,64.67
2024-03-30T04:12:01.513Z,64.57
2024-03-30T04:13:01.478Z,64.36
2024-03-30T04:14:01.540Z,64.06
2024-03-30T04:15:01.519Z,63.95
2024-03-30T04:16:01.539Z,64.16
2024-03-30T04:17:01.559Z,64.06
2024-03-30T04:18:01.589Z,63.44
2024-03-30T04:19:01.643Z,63.65
2024-03-30T04:20:01.634Z,63.95
2024-03-30T04:21:01.640Z,64.36
2024-03-30T04:22:01.664Z,64.98
2024-03-30T04:23:01.705Z,64.87
2024-03-30T04:24:01.751Z,64.67
2024-03-30T04:25:01.725Z,64.36
2024-03-30T04:26:01.738Z,63.34
2024-03-30T04:27:01.730Z,63.24
2024-03-30T04:28:01.796Z,63.95
2024-03-30T04:29:01.770Z,63.95
2024-03-30T04:30:01.813Z,64.06
2024-03-30T04:31:01.802Z,63.95
2024-03-30T04:32:01.801Z,64.26
2024-03-30T04:33:02.667Z,63.75
2024-03-30T04:34:01.842Z,63.72
2024-03-30T04:35:01.830Z,63.72
2024-03-30T04:36:01.881Z,63.31
2024-03-30T04:37:01.872Z,63.41
2024-03-30T04:38:01.950Z,63.51
2024-03-30T04:39:01.910Z,63.51
2024-03-30T04:40:01.944Z,63.51
2024-03-30T04:41:01.938Z,63.41
2024-03-30T04:42:01.955Z,63.72
2024-03-30T04:43:02.030Z,63.82
2024-03-30T04:44:01.973Z,63.72
2024-03-30T04:45:02.027Z,63.82
2024-03-30T04:46:02.010Z,63.92
2024-03-30T04:47:02.049Z,63.82
2024-03-30T04:48:02.115Z,63.62
2024-03-30T04:49:02.057Z,63.72
2024-03-30T04:50:02.078Z,63.62
2024-03-30T04:51:02.095Z,63.62
2024-03-30T04:52:02.112Z,63.92
2024-03-30T04:53:02.209Z,63.92
2024-03-30T04:54:02.171Z,63.82
2024-03-30T04:55:02.197Z,63.72
2024-03-30T04:56:02.192Z,63.82
2024-03-30T04:57:02.258Z,63.92
2024-03-30T04:58:02.281Z,64.03
2024-03-30T04:59:02.232Z,64.03
2024-03-30T05:00:02.257Z,63.92
2024-03-30T05:01:02.276Z,64.03
2024-03-30T05:02:02.293Z,63.82
2024-03-30T05:03:02.396Z,63.82
2024-03-30T05:04:02.328Z,63.82
2024-03-30T05:05:02.358Z,63.92
2024-03-30T05:06:02.378Z,63.92
2024-03-30T05:07:02.384Z,63.92
2024-03-30T05:08:02.445Z,63.92
2024-03-30T05:09:02.431Z,64.03
2024-03-30T05:10:02.487Z,64.03
2024-03-30T05:11:02.475Z,64.13
2024-03-30T05:12:02.507Z,63.92
2024-03-30T05:13:02.531Z,63.72
2024-03-30T05:14:02.495Z,63.62
2024-03-30T05:15:02.507Z,63.51
2024-03-30T05:16:02.559Z,63.72
2024-03-30T05:17:02.557Z,63.82
2024-03-30T05:18:02.594Z,64.13
2024-03-30T05:19:02.592Z,64.33
2024-03-30T05:20:02.614Z,64.43
2024-03-30T05:21:02.628Z,64.33
2024-03-30T05:22:02.641Z,63.92
2024-03-30T05:23:02.664Z,63.72
2024-03-30T05:24:02.654Z,63.72
2024-03-30T05:25:02.674Z,63.92
2024-03-30T05:26:02.684Z,63.92
2024-03-30T05:27:02.713Z,63.92
2024-03-30T05:28:02.761Z,63.92
2024-03-30T05:29:02.728Z,64.03
2024-03-30T05:30:02.787Z,64.03
2024-03-30T05:31:02.757Z,63.72
2024-03-30T05:32:02.825Z,63.62
2024-03-30T05:33:02.864Z,63.82
2024-03-30T05:34:02.815Z,63.82
2024-03-30T05:35:02.839Z,63.82
2024-03-30T05:36:02.898Z,63.82
2024-03-30T05:37:02.875Z,63.51
2024-03-30T05:38:02.876Z,63.51
2024-03-30T05:39:02.901Z,63.51
2024-03-30T05:40:02.884Z,63.51
2024-03-30T05:41:02.906Z,63.62
2024-03-30T05:42:03.009Z,63.82
2024-03-30T05:43:02.945Z,63.82
2024-03-30T05:44:02.971Z,63.72
2024-03-30T05:45:03.011Z,64.03
2024-03-30T05:46:03.001Z,63.92
2024-03-30T05:47:03.040Z,63.92
2024-03-30T05:48:03.071Z,63.92
2024-03-30T05:49:03.044Z,63.92
2024-03-30T05:50:03.098Z,63.72
2024-03-30T05:51:03.075Z,63.31
2024-03-30T05:52:03.133Z,63.39
2024-03-30T05:53:03.182Z,63.51
2024-03-30T05:54:03.144Z,63.59
2024-03-30T05:55:03.130Z,63.69
2024-03-30T05:56:03.149Z,63.69
2024-03-30T05:57:03.228Z,63.59
2024-03-30T05:58:03.193Z,63.18
2024-03-30T05:59:03.192Z,63.07
2024-03-30T06:00:03.259Z,62.66
2024-03-30T06:01:03.243Z,63.28
2024-03-30T06:02:03.278Z,72.07
2024-03-30T06:03:03.298Z,72.86
2024-03-30T06:04:03.288Z,72.00
2024-03-30T06:05:03.289Z,65.77
2024-03-30T06:06:03.314Z,63.53
2024-03-30T06:07:03.362Z,63.02
2024-03-30T06:08:03.378Z,62.61
2024-03-30T06:09:03.393Z,61.99
2024-03-30T06:10:03.404Z,62.51
2024-03-30T06:11:03.406Z,62.10
2024-03-30T06:12:03.553Z,61.79
2024-03-30T06:13:03.454Z,61.58
2024-03-30T06:14:03.459Z,61.69
2024-03-30T06:15:03.543Z,61.79
2024-03-30T06:16:03.490Z,62.10
2024-03-30T06:17:03.520Z,62.10
2024-03-30T06:18:03.510Z,61.99
2024-03-30T06:19:03.506Z,61.99
2024-03-30T06:20:03.540Z,61.90
2024-03-30T06:21:03.595Z,61.69
2024-03-30T06:22:03.599Z,61.79
2024-03-30T06:23:03.581Z,61.49
2024-03-30T06:24:03.623Z,60.77
2024-03-30T06:25:03.631Z,60.97
2024-03-30T06:26:03.727Z,61.08
2024-03-30T06:27:03.698Z,61.38
2024-03-30T06:28:03.651Z,61.28
2024-03-30T06:29:03.678Z,61.38
2024-03-30T06:30:03.712Z,61.79
2024-03-30T06:31:03.735Z,62.30
2024-03-30T06:32:03.714Z,62.20
2024-03-30T06:33:03.738Z,62.40
2024-03-30T06:34:03.747Z,62.30
2024-03-30T06:35:03.745Z,61.99
2024-03-30T06:36:03.836Z,62.10
2024-03-30T06:37:03.785Z,62.30
2024-03-30T06:38:03.823Z,62.10
2024-03-30T06:39:03.861Z,61.99
2024-03-30T06:40:03.854Z,62.20
2024-03-30T06:41:03.916Z,62.61
2024-03-30T06:42:03.898Z,62.51
2024-03-30T06:43:03.889Z,62.30
2024-03-30T06:44:03.906Z,62.51
2024-03-30T06:45:04.017Z,62.40
2024-03-30T06:46:04.000Z,62.71
2024-03-30T06:47:03.950Z,62.51
2024-03-30T06:48:03.988Z,62.40
2024-03-30T06:49:03.986Z,61.90
2024-03-30T06:50:04.002Z,62.20
2024-03-30T06:51:04.106Z,62.30
2024-03-30T06:52:04.031Z,62.40
2024-03-30T06:53:04.060Z,62.40
2024-03-30T06:54:04.086Z,62.61
2024-03-30T06:55:04.078Z,62.71
2024-03-30T06:56:04.147Z,62.51
2024-03-30T06:57:04.142Z,62.40
2024-03-30T06:58:04.124Z,62.71
2024-03-30T06:59:04.160Z,62.40
2024-03-30T07:00:04.183Z,62.61
2024-03-30T07:01:04.203Z,62.61
2024-03-30T07:02:04.209Z,62.61
2024-03-30T07:03:04.239Z,62.61
2024-03-30T07:04:04.215Z,62.51
2024-03-30T07:05:04.230Z,62.61
2024-03-30T07:06:04.311Z,62.78
2024-03-30T07:07:04.260Z,62.99
2024-03-30T07:08:04.281Z,63.09
2024-03-30T07:09:04.310Z,62.88
2024-03-30T07:10:04.307Z,63.09
2024-03-30T07:11:04.336Z,63.40
2024-03-30T07:12:04.422Z,63.60
2024-03-30T07:13:04.335Z,63.40
2024-03-30T07:14:04.354Z,62.88
2024-03-30T07:15:04.415Z,62.88
2024-03-30T07:16:04.421Z,62.99
2024-03-30T07:17:14.208Z,62.68
2024-03-30T07:18:04.699Z,62.68
2024-03-30T07:19:04.421Z,62.78
2024-03-30T07:20:04.511Z,62.88
2024-03-30T07:21:04.513Z,63.09
2024-03-30T07:22:04.469Z,63.19
2024-03-30T07:23:04.479Z,63.29
2024-03-30T07:24:04.518Z,63.49
2024-03-30T07:25:04.540Z,63.81
2024-03-30T07:26:04.533Z,63.81
2024-03-30T07:27:04.604Z,63.67
2024-03-30T07:28:04.559Z,63.09
2024-03-30T07:29:04.564Z,63.06
2024-03-30T07:30:04.683Z,63.47
2024-03-30T07:31:04.597Z,63.06
2024-03-30T07:32:04.641Z,62.85
2024-03-30T07:33:04.724Z,62.96
2024-03-30T07:34:04.663Z,63.06
2024-03-30T07:35:04.688Z,63.06
2024-03-30T07:36:04.739Z,63.06
2024-03-30T07:37:04.707Z,62.96
2024-03-30T07:38:04.714Z,62.96
2024-03-30T07:39:04.748Z,62.96
2024-03-30T07:40:04.771Z,63.06
2024-03-30T07:41:04.748Z,62.76
2024-03-30T07:42:04.794Z,62.76
2024-03-30T07:43:04.775Z,62.32
2024-03-30T07:44:04.818Z,62.42
2024-03-30T07:45:04.894Z,62.42
2024-03-30T07:46:04.861Z,62.93
2024-03-30T07:47:04.857Z,63.23
2024-03-30T07:48:04.940Z,63.03
2024-03-30T07:49:04.882Z,63.34
2024-03-30T07:50:04.933Z,63.34
2024-03-30T07:51:04.940Z,63.03
2024-03-30T07:52:04.936Z,63.23
2024-03-30T07:53:04.952Z,63.34
2024-03-30T07:54:04.992Z,63.54
2024-03-30T07:55:05.044Z,63.64
2024-03-30T07:56:05.124Z,63.95
2024-03-30T07:57:05.248Z,64.05
2024-03-30T07:58:05.021Z,63.82
2024-03-30T07:59:05.206Z,63.51
2024-03-30T08:00:05.119Z,63.61
2024-03-30T08:01:05.093Z,63.71
2024-03-30T08:02:05.065Z,63.82
2024-03-30T08:03:05.092Z,63.71
2024-03-30T08:04:05.150Z,63.82
2024-03-30T08:05:06.591Z,63.82
2024-03-30T08:06:05.176Z,63.92
2024-03-30T08:07:05.132Z,64.22
2024-03-30T08:08:05.159Z,64.02
2024-03-30T08:09:05.246Z,63.71
2024-03-30T08:10:05.192Z,63.71
2024-03-30T08:11:05.202Z,63.92
2024-03-30T08:12:05.264Z,64.22
2024-03-30T08:13:05.246Z,64.53
2024-03-30T08:14:05.301Z,64.53
2024-03-30T08:15:05.308Z,64.94
2024-03-30T08:16:05.305Z,64.84
2024-03-30T08:17:05.321Z,64.53
2024-03-30T08:18:05.373Z,64.40
2024-03-30T08:19:05.358Z,64.50
2024-03-30T08:20:05.344Z,64.81
2024-03-30T08:21:05.381Z,64.90
2024-03-30T08:22:05.376Z,64.81
2024-03-30T08:23:05.383Z,64.60
2024-03-30T08:24:05.487Z,64.40
2024-03-30T08:25:05.450Z,63.89
2024-03-30T08:26:05.425Z,63.68
2024-03-30T08:27:05.524Z,63.68
2024-03-30T08:28:05.500Z,63.38
2024-03-30T08:29:05.524Z,63.28
2024-03-30T08:30:09.893Z,63.28
2024-03-30T08:31:05.489Z,63.38
2024-03-30T08:32:05.509Z,63.58
2024-03-30T08:33:05.565Z,63.89
2024-03-30T08:34:05.549Z,64.09
2024-03-30T08:35:05.523Z,64.29
2024-03-30T08:36:05.563Z,64.40
2024-03-30T08:37:05.552Z,64.40
2024-03-30T08:38:05.571Z,64.50
2024-03-30T08:39:05.660Z,64.60
2024-03-30T08:40:05.618Z,63.99
2024-03-30T08:41:05.663Z,64.06
2024-03-30T08:42:05.727Z,64.37
2024-03-30T08:43:05.662Z,65.19
2024-03-30T08:44:05.717Z,65.59
2024-03-30T08:45:05.714Z,65.49
2024-03-30T08:46:05.702Z,65.59
2024-03-30T08:47:05.724Z,65.59
2024-03-30T08:48:05.799Z,65.49
2024-03-30T08:49:05.782Z,65.49
2024-03-30T08:50:05.763Z,65.19
2024-03-30T08:51:05.802Z,65.49
2024-03-30T08:52:05.847Z,65.49
2024-03-30T08:53:05.936Z,65.49
2024-03-30T08:54:05.861Z,65.49
2024-03-30T08:55:05.882Z,64.67
2024-03-30T08:56:05.862Z,65.19
2024-03-30T08:57:05.913Z,63.96
2024-03-30T08:58:05.934Z,63.96
2024-03-30T08:59:05.908Z,62.74
2024-03-30T09:00:05.941Z,62.84
2024-03-30T09:01:05.946Z,63.15
2024-03-30T09:02:05.970Z,63.24
2024-03-30T09:03:06.030Z,63.65
2024-03-30T09:04:05.977Z,63.86
2024-03-30T09:05:06.009Z,63.45
2024-03-30T09:06:06.009Z,63.15
2024-03-30T09:07:06.014Z,63.35
2024-03-30T09:08:06.071Z,63.35
2024-03-30T09:09:06.087Z,68.75
2024-03-30T09:10:06.046Z,68.44
2024-03-30T09:11:06.066Z,66.00
2024-03-30T09:12:06.103Z,65.28
2024-03-30T09:13:06.124Z,65.08
2024-03-30T09:14:06.115Z,64.67
2024-03-30T09:15:06.141Z,63.86
2024-03-30T09:16:06.172Z,63.86
2024-03-30T09:17:06.155Z,63.86
2024-03-30T09:18:06.196Z,63.96
2024-03-30T09:19:06.194Z,64.06
2024-03-30T09:20:06.216Z,64.78
2024-03-30T09:21:06.275Z,65.28
2024-03-30T09:22:06.271Z,65.49
2024-03-30T09:23:06.283Z,65.89
2024-03-30T09:24:06.259Z,65.49
2024-03-30T09:25:06.291Z,65.49
2024-03-30T09:26:06.283Z,65.49
2024-03-30T09:27:06.368Z,65.39
2024-03-30T09:28:06.302Z,65.19
2024-03-30T09:29:06.319Z,65.08
2024-03-30T09:30:06.379Z,65.08
2024-03-30T09:31:06.372Z,65.08
2024-03-30T09:32:06.411Z,66.20
2024-03-30T09:33:06.396Z,66.61
2024-03-30T09:34:06.390Z,66.82
2024-03-30T09:35:06.419Z,66.82
2024-03-30T09:36:06.436Z,67.02
2024-03-30T09:37:06.472Z,66.82
2024-03-30T09:38:06.455Z,66.91
2024-03-30T09:39:06.482Z,67.22
2024-03-30T09:40:06.469Z,67.22
2024-03-30T09:41:06.498Z,67.02
2024-03-30T09:42:06.670Z,67.43
2024-03-30T09:43:06.528Z,67.73
2024-03-30T09:44:06.560Z,67.73
2024-03-30T09:45:06.584Z,68.13
2024-03-30T09:46:06.616Z,68.54
2024-03-30T09:47:06.638Z,68.95
2024-03-30T09:48:06.622Z,68.75
2024-03-30T09:49:06.626Z,68.85
2024-03-30T09:50:06.642Z,69.06
2024-03-30T09:51:06.682Z,69.06
2024-03-30T09:52:06.690Z,68.75
2024-03-30T09:53:06.669Z,68.85
2024-03-30T09:54:06.741Z,68.85
2024-03-30T09:55:06.709Z,68.95
2024-03-30T09:56:06.735Z,68.54
2024-03-30T09:57:06.804Z,68.85
2024-03-30T09:58:06.738Z,69.15
2024-03-30T09:59:06.754Z,69.36
2024-03-30T10:00:06.800Z,69.56
2024-03-30T10:01:06.799Z,69.36
2024-03-30T10:02:06.842Z,69.15
2024-03-30T10:03:06.833Z,69.56
2024-03-30T10:04:06.841Z,69.67
2024-03-30T10:05:06.843Z,70.07
2024-03-30T10:06:06.872Z,70.17
2024-03-30T10:07:06.917Z,70.28
2024-03-30T10:08:06.891Z,69.97
2024-03-30T10:09:06.926Z,69.67
2024-03-30T10:10:06.936Z,69.67
2024-03-30T10:11:07.790Z,69.76
2024-03-30T10:12:06.986Z,69.06
2024-03-30T10:13:06.964Z,69.56
2024-03-30T10:14:07.697Z,69.06
2024-03-30T10:15:07.022Z,68.92
2024-03-30T10:16:07.005Z,68.92
2024-03-30T10:17:07.046Z,69.23
2024-03-30T10:18:07.032Z,69.53
2024-03-30T10:19:07.043Z,69.23
2024-03-30T10:20:07.060Z,69.43
2024-03-30T10:21:07.209Z,69.53
2024-03-30T10:22:07.123Z,69.53
2024-03-30T10:23:07.112Z,69.53
2024-03-30T10:24:07.120Z,69.63
2024-03-30T10:25:07.177Z,72.48
2024-03-30T10:26:07.187Z,72.78
2024-03-30T10:27:07.231Z,70.24
2024-03-30T10:28:07.186Z,69.84
2024-03-30T10:29:07.205Z,69.63
2024-03-30T10:30:07.251Z,69.63
2024-03-30T10:31:07.258Z,69.32
2024-03-30T10:32:08.849Z,69.02
2024-03-30T10:33:07.257Z,69.02
2024-03-30T10:34:07.277Z,69.12
2024-03-30T10:35:07.296Z,68.92
2024-03-30T10:36:07.315Z,68.92
2024-03-30T10:37:07.371Z,68.31
2024-03-30T10:38:08.963Z,68.82
2024-03-30T10:39:07.362Z,68.82
2024-03-30T10:40:07.357Z,69.02
2024-03-30T10:41:07.406Z,69.32
2024-03-30T10:42:07.427Z,69.84
2024-03-30T10:43:07.403Z,69.93
2024-03-30T10:44:07.410Z,69.84
2024-03-30T10:45:07.509Z,69.93
2024-03-30T10:46:07.642Z,69.84
2024-03-30T10:47:07.553Z,69.84
2024-03-30T10:48:07.598Z,69.23
2024-03-30T10:49:07.522Z,69.02
2024-03-30T10:50:07.676Z,68.82
2024-03-30T10:51:07.742Z,68.51
2024-03-30T10:52:07.668Z,68.31
2024-03-30T10:53:07.614Z,68.51
2024-03-30T10:54:07.791Z,68.41
2024-03-30T10:55:07.701Z,68.41
2024-03-30T10:56:07.750Z,68.62
2024-03-30T10:57:07.758Z,68.71
2024-03-30T10:58:07.625Z,68.82
2024-03-30T10:59:07.641Z,69.43
2024-03-30T11:00:07.683Z,70.14
2024-03-30T11:01:07.708Z,71.26
2024-03-30T11:02:07.683Z,70.86
2024-03-30T11:03:07.755Z,71.06
2024-03-30T11:04:07.699Z,71.16
2024-03-30T11:05:07.716Z,73.10
2024-03-30T11:06:07.781Z,72.69
2024-03-30T11:07:07.767Z,72.69
2024-03-30T11:08:07.769Z,72.58
2024-03-30T11:09:07.825Z,72.38
2024-03-30T11:10:07.794Z,72.89
2024-03-30T11:11:07.852Z,72.62
2024-03-30T11:12:07.841Z,72.38
2024-03-30T11:13:09.542Z,72.21
2024-03-30T11:14:07.857Z,72.11
2024-03-30T11:15:07.931Z,72.62
2024-03-30T11:16:07.935Z,72.62
2024-03-30T11:17:07.896Z,72.72
2024-03-30T11:18:07.922Z,72.86
2024-03-30T11:19:08.459Z,72.86
2024-03-30T11:20:07.986Z,72.41
2024-03-30T11:21:07.988Z,72.75
2024-03-30T11:22:07.988Z,73.06
2024-03-30T11:23:08.008Z,72.96
2024-03-30T11:24:08.042Z,72.14
2024-03-30T11:25:08.077Z,72.24
2024-03-30T11:26:08.057Z,72.14
2024-03-30T11:27:08.060Z,71.73
2024-03-30T11:28:08.073Z,72.24
2024-03-30T11:29:08.081Z,71.73
2024-03-30T11:30:08.184Z,71.94
2024-03-30T11:31:08.116Z,71.94
2024-03-30T11:32:08.122Z,71.53
2024-03-30T11:33:08.133Z,71.12
2024-03-30T11:34:08.167Z,70.72
2024-03-30T11:35:08.678Z,69.87
2024-03-30T11:36:08.181Z,69.87
2024-03-30T11:37:08.222Z,69.97
2024-03-30T11:38:08.201Z,68.85
2024-03-30T11:39:08.353Z,68.85
2024-03-30T11:40:08.273Z,69.36
2024-03-30T11:41:08.292Z,69.97
2024-03-30T11:42:08.337Z,69.97
2024-03-30T11:43:08.461Z,69.67
2024-03-30T11:44:08.345Z,68.65
2024-03-30T11:45:08.541Z,68.41
2024-03-30T11:46:08.364Z,68.62
2024-03-30T11:47:08.377Z,68.21
2024-03-30T11:48:08.402Z,68.21
2024-03-30T11:49:08.426Z,68.21
2024-03-30T11:50:08.474Z,68.21
2024-03-30T11:51:08.457Z,66.58
2024-03-30T11:52:08.440Z,66.65
2024-03-30T11:53:08.929Z,66.44
2024-03-30T11:54:08.534Z,65.53
2024-03-30T11:55:08.521Z,64.41
2024-03-30T11:56:08.528Z,63.70
2024-03-30T11:57:16.712Z,63.70
2024-03-30T11:58:08.537Z,62.78
2024-03-30T11:59:08.552Z,61.46
2024-03-30T12:00:08.612Z,61.33
2024-03-30T12:01:08.576Z,62.14
2024-03-30T12:02:08.595Z,60.31
2024-03-30T12:03:08.612Z,60.31
2024-03-30T12:04:08.625Z,60.82
2024-03-30T12:05:08.666Z,61.63
2024-03-30T12:06:08.644Z,59.60
2024-03-30T12:07:08.660Z,59.67
2024-03-30T12:08:08.671Z,60.18
2024-03-30T12:09:08.702Z,61.30
2024-03-30T12:10:08.738Z,61.81
2024-03-30T12:11:08.720Z,60.49
2024-03-30T12:12:08.743Z,60.69
2024-03-30T12:13:08.746Z,60.99
2024-03-30T12:14:08.759Z,59.47
2024-03-30T12:15:08.825Z,59.16
2024-03-30T12:16:08.791Z,58.86
2024-03-30T12:17:08.809Z,58.45
2024-03-30T12:18:08.855Z,59.47
2024-03-30T12:19:08.845Z,59.44
2024-03-30T12:20:08.902Z,58.22
2024-03-30T12:21:08.862Z,58.53
2024-03-30T12:22:08.905Z,59.24
2024-03-30T12:23:08.909Z,58.42
2024-03-30T12:24:08.966Z,57.81
2024-03-30T12:25:08.971Z,59.44
2024-03-30T12:26:08.930Z,58.33
2024-03-30T12:27:08.993Z,57.71
2024-03-30T12:28:08.984Z,58.42
2024-03-30T12:29:09.030Z,55.86
2024-03-30T12:30:09.029Z,56.67
2024-03-30T12:31:09.022Z,56.87
2024-03-30T12:32:09.037Z,56.77
2024-03-30T12:33:09.051Z,57.68
2024-03-30T12:34:09.093Z,57.79
2024-03-30T12:35:09.086Z,56.67
2024-03-30T12:36:09.098Z,55.55
2024-03-30T12:37:09.105Z,55.86
2024-03-30T12:38:09.109Z,56.98
2024-03-30T12:39:09.181Z,55.86
2024-03-30T12:40:09.160Z,55.86
2024-03-30T12:41:09.171Z,57.28
2024-03-30T12:42:09.207Z,57.38
2024-03-30T12:43:09.249Z,57.38
2024-03-30T12:44:09.266Z,57.28
2024-03-30T12:45:09.251Z,57.18
2024-03-30T12:46:09.272Z,62.36
2024-03-30T12:47:09.290Z,59.99
2024-03-30T12:48:09.359Z,61.72
2024-03-30T12:49:09.325Z,60.50
2024-03-30T12:50:09.323Z,59.69
2024-03-30T12:51:09.329Z,57.66
2024-03-30T12:52:09.354Z,58.37
2024-03-30T12:53:09.391Z,58.67